Aviation Digital Data Service (ADDS)

Output produced by METARs form (1123 UTC 06 July 2015)
found at http://aviationweather.gov/adds/metars/
 
KJST 061002Z 0610/0706 14005KT 6SM BR VCSH BKN008 OVC050 
     FM061500 15005KT P6SM -SHRA SCT025 OVC050 
     FM070000 19005KT 5SM BR VCSH OVC015